Airfield :
LOGIN :

Register | Disclaimer

   EN    FR    IT 

 










Legend :    VFR   Marginal VFR   IFR   Intensive IFR   Very Intensive IFR
Visi :
Ceiling :
>= 8 km
>= 3000ft
5 to 8 km
1000 to 3000 ft
1500m to 5 km
500 to 1000 ft
800 to 1500m
200 to 500 ft
< 800m
< 200 ft
Symbols :   Thunderstorms  Fog  Heavy snow  Heavy precipitations  Wind > 20 kt
SIGMETs :     Misc.  Thunderstorms  Icing  Turbulence  Mountain Waves  Volcanic Ashes






- Airport Elevation : 3360 ft
- IATA code : QSF


DAAS - 8 Mai 45

CURRENT METAR :
  • 150900Z 20001KT 9999 FEW030 BKN233 11/06 Q1022

EXPIRED METARs :
  • 150800Z 02003KT 9999 FEW030 BKN233 06/03 Q1021
  • 150700Z 28002KT 9999 FEW030 SCT100 03/01 Q1021

TAF TAF DAAS
Valid from the 15 at 06:00 until the 16 at 06:00 UTC


150500Z 1506/1606 20008KT 9999 FEW026 SCT090
PROB40
TEMPO 1506/1509 2000 BR BKN008
BECMG 1509/1510 27012KT
BECMG 1518/1520 19006KT



MET'MAP, your aeronautical weather chart ! - Copyright ORBIFLY December 2007 - Disclaimer

ORBIFLY MET'MAP TEAM :

Programming & Development : Alexandra Zaïnal
Concept & original design : Baudouin d'Aumeries
Assistance for programming : Marc-Olivier Méhu
Technical & hardware support : Manuel Goepfert

Contact : metmap@orbifly.com




SOURCES & CREDITS :

   NOAA